De Borgia, Montana
Current Conditions -  °F | °C
As of 9:53 AM on Friday 24 Oct 2014 (Local Time) from KMLP Reporting Station
Overcast Overcast  
Wind Chill: 33°   Ceiling: 9500
Heat Index: 33°   Visibility: 10mi
Dew Point: 31°   Wind: 3mph
Humidity: 92%   Direction: NA
Pressure: 30.08"   Gusts: NA
Location:  47.38°N, 115.34°W
Report Text: KMLP 241553Z AUTO VRB03KT 10SM FEW012 OVC095 01/M01 A3008 RMK AO2 SLP157 T00061006
Loading
Personal Weather Stations






























Interactive Weather Map
Tropical Storm Tracking
New forecast layout! Learn more

10-Day Weather Forecast

Advertisements
Track Severe Weather on mobile